ADDS METAR Data INFO
IDs: Format: Raw Decoded Include TAF

Data at: 0925 UTC 17 Oct 2017

KEZM 170915Z AUTO 05006KT 10SM CLR 14/02 A3023 RMK AO2 T01380020
KEZM 170855Z AUTO 05007KT 10SM CLR 14/02 A3022 RMK AO2 T01420022
KEZM 170835Z AUTO 05005KT 10SM CLR 14/03 A3022 RMK AO2 T01420026
KEZM 170815Z AUTO 05007KT 10SM CLR 15/03 A3021 RMK AO2 T01460028
KEZM 170755Z AUTO 05007KT 10SM CLR 15/03 A3021 RMK AO2 T01510029
KEZM 170735Z AUTO 05008KT 10SM CLR 15/03 A3022 RMK AO2 T01530032
KEZM 170715Z AUTO 06006KT 10SM CLR 16/03 A3021 RMK AO2 T01560030
KEZM 170655Z AUTO 06010KT 10SM CLR 16/03 A3021 RMK AO2 T01610026
KEZM 170635Z AUTO 06007G14KT 10SM CLR 17/03 A3022 RMK AO2 T01650025
KEZM 170615Z AUTO 06011G14KT 10SM CLR 17/02 A3021 RMK AO2 T01680024
KEZM 170555Z AUTO 07010G14KT 10SM CLR 17/03 A3021 RMK AO2 T01720031 10206 20172
KEZM 170535Z AUTO 07009G15KT 10SM CLR 18/04 A3020 RMK AO2 T01760041
KEZM 170515Z AUTO 07012G17KT 10SM CLR 18/05 A3019 RMK AO2 T01800052
KEZM 170455Z AUTO 06012G24KT 10SM CLR 19/06 A3019 RMK AO2 T01850061
KEZM 170435Z AUTO 06014G21KT 10SM CLR 19/06 A3019 RMK AO2 T01880064
KEZM 170415Z AUTO 06012G16KT 10SM CLR 19/07 A3018 RMK AO2 T01900065
KEZM 170355Z AUTO 07012G20KT 10SM SCT027 20/07 A3018 RMK AO2 T01950069
KEZM 170335Z AUTO 06010G16KT 10SM SCT025 20/10 A3017 RMK AO2 T01980101
KEZM 170315Z AUTO 06011G16KT 10SM SCT025 20/11 A3017 RMK AO2 T02000107
KEZM 170255Z AUTO 05007KT 10SM SCT037 20/11 A3015 RMK AO2 T02020110
KEZM 170235Z AUTO 06013KT 10SM BKN035 20/11 A3014 RMK AO2 T02040107
KEZM 170215Z AUTO 03006KT 10SM OVC035 20/09 A3013 RMK AO2 LTG DSNT SE T01960091
KEZM 170155Z AUTO 03005KT 10SM SCT026 OVC034 20/09 A3013 RMK AO2 T01970086
KEZM 170135Z AUTO 01004KT 10SM BKN027 BKN035 19/09 A3012 RMK AO2 T01880092
KEZM 170115Z AUTO 00000KT 10SM SCT037 18/09 A3011 RMK AO2 T01790094
KEZM 170055Z AUTO 00000KT 10SM SCT037 18/09 A3010 RMK AO2 T01810092
KEZM 170035Z AUTO 34003KT 10SM CLR 18/09 A3010 RMK AO2 T01820093
KEZM 170015Z AUTO 00000KT 10SM CLR 19/09 A3010 RMK AO2 T01870093
KEZM 162355Z AUTO 00000KT 10SM CLR 19/09 A3009 RMK AO2 T01930091 10284 20193
KEZM 162335Z AUTO 00000KT 10SM CLR 20/08 A3008 RMK AO2 T02020083
KEZM 162315Z AUTO 34004KT 10SM CLR 21/08 A3006 RMK AO2 T02140077
KEZM 162255Z AUTO 34005G16KT 10SM CLR 22/08 A3005 RMK AO2 T02240078
KEZM 162235Z AUTO 32004KT 10SM CLR 23/09 A3005 RMK AO2 T02320085
KEZM 162215Z AUTO 34006KT 10SM CLR 24/08 A3003 RMK AO2 T02400079
KEZM 162155Z AUTO 33005KT 10SM CLR 25/08 A3002 RMK AO2 T02490080
KEZM 162135Z AUTO 32004KT 10SM CLR 25/09 A3002 RMK AO2 T02490090
KEZM 162115Z AUTO 34005KT 10SM CLR 26/10 A3001 RMK AO2 T02590099
KEZM 162055Z AUTO 33006KT 10SM CLR 25/11 A3002 RMK AO2 T02540106
KEZM 162035Z AUTO 31005KT 10SM CLR 26/12 A3001 RMK AO2 T02580119
KEZM 162015Z AUTO 30005KT 10SM SCT048 SCT060 26/13 A3001 RMK AO2 T02610133
KEZM 161955Z AUTO 31007KT 10SM OVC046 26/13 A3002 RMK AO2 T02610130
KEZM 161935Z AUTO 32005KT 10SM BKN044 27/13 A3001 RMK AO2 LTG DSNT SE T02700134
KEZM 161915Z AUTO 34006KT 10SM SCT044 28/13 A3001 RMK AO2 T02830131
KEZM 161855Z AUTO 35007KT 330V030 10SM SCT031 BKN044 BKN060 27/13 A3001 RMK AO2 T02740129
KEZM 161835Z AUTO 32006KT 10SM OVC029 27/14 A3002 RMK AO2 T02730135
KEZM 161815Z AUTO 33007KT 290V350 10SM OVC027 27/14 A3003 RMK AO2 T02680140
KEZM 161755Z AUTO 32006KT 10SM BKN025 BKN060 27/15 A3004 RMK AO2 T02740145
KEZM 161735Z AUTO 35005KT 10SM OVC025 27/15 A3005 RMK AO2 T02690152
KEZM 161715Z AUTO 33009KT 10SM BKN025 OVC048 27/15 A3006 RMK AO2 T02730152
KEZM 161655Z AUTO 35005KT 10SM BKN025 BKN037 OVC110 27/16 A3007 RMK AO2 T02710155
KEZM 161635Z AUTO 34004KT 10SM SCT022 BKN029 OVC110 27/16 A3007 RMK AO2 T02710160
KEZM 161615Z AUTO 34005KT 10SM BKN023 BKN030 BKN038 28/16 A3007 RMK AO2 T02790161
KEZM 161555Z AUTO 36004KT 10SM BKN021 27/16 A3007 RMK AO2 T02740160
KEZM 161535Z AUTO 01005KT 10SM SCT019 28/16 A3007 RMK AO2 T02780160
KEZM 161515Z AUTO 35003KT 10SM SCT019 SCT120 27/17 A3007 RMK AO2 T02700165
KEZM 161455Z AUTO 31004KT 10SM BKN120 27/16 A3008 RMK AO2 T02710164
KEZM 161435Z AUTO 35003KT 10SM SCT041 OVC110 27/17 A3007 RMK AO2 T02680171
KEZM 161415Z AUTO 32006KT 10SM SCT041 27/17 A3008 RMK AO2 T02660171
KEZM 161355Z AUTO 29005KT 10SM CLR 26/17 A3007 RMK AO2 T02600174
KEZM 161335Z AUTO 30003KT 10SM CLR 25/22 A3007 RMK AO2 T02510220
KEZM 161315Z AUTO 27003KT 10SM CLR A3007 RMK AO2
KEZM 161255Z AUTO 00000KT 7SM CLR A3007 RMK AO2
KEZM 161235Z AUTO 00000KT 5SM HZ CLR A3006 RMK AO2
KEZM 161215Z AUTO 00000KT 2SM BR CLR 21/21 A3006 RMK AO2 T02100210
KEZM 161155Z AUTO 00000KT 5SM HZ CLR A3005 RMK AO2
KEZM 161135Z AUTO 00000KT 1 1/2SM BR VV007 A3006 RMK AO2
KEZM 161115Z AUTO 00000KT 7SM CLR A3005 RMK AO2
KEZM 161055Z AUTO 00000KT 10SM CLR A3005 RMK AO2
KEZM 161035Z AUTO 00000KT 10SM SCT080 A3004 RMK AO2
KEZM 161015Z AUTO 00000KT 10SM OVC080 A3004 RMK AO2
KEZM 160955Z AUTO 00000KT 10SM OVC080 A3005 RMK AO2
KEZM 160935Z AUTO 00000KT 7SM BKN080 A3004 RMK AO2
KEZM 160915Z AUTO 00000KT 7SM CLR A3004 RMK AO2
KEZM 160855Z AUTO 00000KT 7SM CLR A3004 RMK AO2
KEZM 160835Z AUTO 00000KT 7SM SCT110 A3004 RMK AO2
KEZM 160815Z AUTO 00000KT 7SM BKN100 A3005 RMK AO2
KEZM 160755Z AUTO 00000KT 7SM SCT110 A3005 RMK AO2
KEZM 160735Z AUTO 00000KT 7SM CLR A3005 RMK AO2
KEZM 160715Z AUTO 00000KT 7SM SCT120 A3006 RMK AO2
KEZM 160655Z AUTO 00000KT 10SM CLR A3006 RMK AO2
KEZM 160635Z AUTO 00000KT 10SM CLR A3007 RMK AO2
KEZM 160615Z AUTO 00000KT 7SM SCT120 A3007 RMK AO2
KEZM 160555Z AUTO 00000KT 7SM CLR A3007 RMK AO2
KEZM 160535Z AUTO 00000KT 7SM CLR A3008 RMK AO2
KEZM 160515Z AUTO 00000KT 7SM CLR A3008 RMK AO2
KEZM 160455Z AUTO 00000KT 10SM CLR A3008 RMK AO2
KEZM 160435Z AUTO 00000KT 10SM CLR A3008 RMK AO2
KEZM 160415Z AUTO 00000KT 10SM CLR A3008 RMK AO2
KEZM 160355Z AUTO 00000KT 10SM CLR A3008 RMK AO2
KEZM 160335Z AUTO 00000KT 10SM CLR A3008 RMK AO2
KEZM 160315Z AUTO 00000KT 10SM CLR A3009 RMK AO2
KEZM 160255Z AUTO 00000KT 10SM CLR A3009 RMK AO2
KEZM 160235Z AUTO 00000KT 10SM CLR 21/21 A3009 RMK AO2 T02080208
KEZM 160215Z AUTO 00000KT 10SM CLR 21/21 A3009 RMK AO2 T02080208
KEZM 160155Z AUTO 00000KT 10SM CLR 23/19 A3008 RMK AO2 T02250192
KEZM 160135Z AUTO 00000KT 10SM CLR 22/20 A3008 RMK AO2 T02200199
KEZM 160115Z AUTO 00000KT 10SM CLR 22/21 A3008 RMK AO2 T02160214
KEZM 160055Z AUTO 00000KT 10SM CLR 22/22 A3007 RMK AO2 T02180217
KEZM 160035Z AUTO 00000KT 10SM CLR 22/21 A3007 RMK AO2 T02240213
KEZM 160015Z AUTO 00000KT 10SM CLR 24/15 A3007 RMK AO2 T02380154
KEZM 152355Z AUTO 14003KT 10SM CLR 25/16 A3007 RMK AO2 T02450163 10319 20240
KEZM 152335Z AUTO 00000KT 10SM CLR 24/16 A3006 RMK AO2 T02400156
KEZM 152315Z AUTO 00000KT 10SM CLR 25/14 A3006 RMK AO2 T02520144
KEZM 152255Z AUTO 00000KT 10SM CLR 28/12 A3006 RMK AO2 T02800122
KEZM 152235Z AUTO 09003KT 10SM CLR 29/11 A3007 RMK AO2 T02910111
KEZM 152215Z AUTO 10005KT 10SM CLR 30/10 A3006 RMK AO2 T03000100
KEZM 152155Z AUTO 11003KT 10SM CLR 30/09 A3007 RMK AO2 T03030094
KEZM 152135Z AUTO 11004KT 10SM CLR 31/10 A3007 RMK AO2 T03100095